Date,TemperatureHighF,TemperatureAvgF,TemperatureLowF,DewpointHighF,DewpointAvgF,DewpointLowF,HumidityHigh,HumidityAvg,HumidityLow,PressureMaxIn,PressureMinIn,WindSpeedMaxMPH,WindSpeedAvgMPH,GustSpeedMaxMPH,PrecipitationSumIn
2013-4-1,53.1,46.5,35.1,46.0,39.3,30.0,97,78,54,30.00,29.87,11,2,21,0.01
2013-4-2,48.0,40.2,31.6,31.0,22.9,18.0,74,52,31,30.19,30.00,12,3,15,0.00
2013-4-3,52.8,39.3,24.0,27.0,19.6,15.0,83,49,23,30.32,30.19,9,1,13,0.00
2013-4-4,38.7,34.5,31.7,34.0,25.9,11.0,96,74,34,30.30,30.02,8,1,11,0.47
2013-4-5,52.4,40.1,34.1,39.0,35.8,32.0,96,86,57,30.12,29.99,10,2,14,0.18
2013-4-6,62.0,42.5,27.5,39.0,29.2,-99.9,96,68,34,30.28,30.13,8,-23,15,0.00
2013-4-7,65.2,51.8,37.7,45.0,38.7,33.0,86,63,42,30.21,30.07,8,2,13,0.00
2013-4-8,72.2,53.9,36.3,51.0,43.6,35.0,96,72,43,30.17,30.04,7,1,12,0.00
2013-4-9,79.9,61.3,39.7,54.0,48.1,38.0,96,66,35,30.20,30.05,6,1,10,0.00
2013-4-10,82.7,64.4,45.6,57.0,51.1,44.0,96,66,35,30.08,29.91,7,1,10,0.00
2013-4-11,75.5,62.7,48.4,60.0,53.1,47.0,95,73,47,29.93,29.66,8,2,12,0.36
2013-4-12,62.7,56.6,48.5,60.0,49.8,38.0,96,79,48,29.85,29.57,12,2,15,0.26
2013-4-13,63.2,53.2,42.1,39.0,36.5,34.0,79,55,36,30.06,29.84,9,2,15,0.00
2013-4-14,68.8,52.5,33.1,48.0,37.9,32.0,95,63,30,30.13,29.98,7,1,14,0.00
2013-4-15,57.7,53.3,49.7,52.0,50.0,47.0,95,88,79,30.20,29.97,7,1,11,0.03
2013-4-16,77.0,63.1,50.7,59.0,54.1,49.0,96,75,46,30.26,30.14,8,2,11,0.03
2013-4-17,67.4,58.9,54.3,61.0,55.9,52.0,97,90,70,30.24,30.09,6,1,8,0.33
2013-4-18,71.3,63.4,54.9,59.0,56.2,53.0,95,79,54,30.11,29.90,9,2,18,0.01
2013-4-19,63.7,56.1,41.9,61.0,53.2,36.0,95,90,77,29.90,29.67,16,3,17,0.31
2013-4-20,52.7,42.1,33.4,36.0,30.2,27.0,85,65,40,30.35,29.90,11,4,19,0.26
2013-4-21,56.6,43.2,29.4,34.0,30.2,26.0,94,65,37,30.50,30.35,8,2,13,0.26
2013-4-22,61.4,48.1,38.6,37.0,33.7,30.0,80,60,36,30.44,30.23,6,1,9,0.00
2013-4-23,70.1,52.0,31.7,45.0,37.5,29.0,91,62,27,30.29,30.09,6,1,10,0.00
2013-4-24,72.5,56.4,40.9,56.0,47.9,39.0,94,75,44,30.11,29.94,13,2,17,0.06
2013-4-25,60.6,47.9,37.9,44.0,33.2,16.0,92,62,18,30.36,30.08,17,2,17,0.06
2013-4-26,65.5,48.7,29.9,41.0,33.6,28.0,95,62,31,30.46,30.33,8,1,12,0.00
2013-4-27,57.2,50.8,46.7,49.0,45.1,40.0,92,81,61,30.39,30.22,4,1,10,0.03
2013-4-28,52.0,49.6,46.2,51.0,46.5,37.0,96,89,60,30.23,30.01,8,2,11,0.85
2013-4-29,66.3,56.0,48.5,55.0,51.0,48.0,97,84,59,30.05,29.95,7,0,9,0.04
2013-4-30,71.8,59.5,53.5,57.0,54.5,52.0,97,84,53,30.15,29.98,6,1,7,0.10